createdAt,value
2024-01-15T00:00:29.974Z,82.43
2024-01-15T00:03:38.690Z,82.90
2024-01-15T00:06:46.112Z,82.27
2024-01-15T00:09:51.287Z,82.29
2024-01-15T00:12:55.100Z,81.83
2024-01-15T00:16:01.323Z,82.13
2024-01-15T00:19:06.066Z,82.73
2024-01-15T00:22:10.040Z,82.19
2024-01-15T00:25:18.950Z,83.18
2024-01-15T00:28:23.089Z,82.96
2024-01-15T00:31:26.794Z,82.33
2024-01-15T00:34:30.684Z,83.64
2024-01-15T00:37:34.917Z,84.08
2024-01-15T00:40:40.298Z,83.36
2024-01-15T00:43:45.180Z,82.96
2024-01-15T00:46:49.232Z,82.36
2024-01-15T00:49:54.900Z,82.18
2024-01-15T00:52:58.578Z,83.08
2024-01-15T00:56:05.737Z,82.03
2024-01-15T00:59:11.555Z,81.32
2024-01-15T01:02:15.286Z,83.55
2024-01-15T01:05:19.149Z,82.96
2024-01-15T01:08:24.338Z,82.58
2024-01-15T01:11:29.440Z,82.01
2024-01-15T01:14:34.755Z,83.07
2024-01-15T01:17:38.687Z,83.65
2024-01-15T01:20:42.902Z,84.49
2024-01-15T01:23:46.838Z,82.48
2024-01-15T01:26:53.099Z,82.85
2024-01-15T01:29:57.434Z,82.71
2024-01-15T01:33:02.999Z,82.54
2024-01-15T01:36:10.950Z,85.07
2024-01-15T01:39:20.540Z,83.48
2024-01-15T01:42:28.336Z,82.67
2024-01-15T01:45:34.734Z,84.42
2024-01-15T01:48:39.206Z,84.10
2024-01-15T01:51:43.116Z,84.68
2024-01-15T01:54:50.028Z,84.52
2024-01-15T01:57:59.596Z,84.93
2024-01-15T02:01:03.765Z,83.92
2024-01-15T02:04:08.579Z,83.90
2024-01-15T02:07:12.543Z,83.70
2024-01-15T02:10:16.697Z,84.31
2024-01-15T02:13:26.543Z,84.94
2024-01-15T02:16:31.945Z,83.49
2024-01-15T02:19:41.000Z,84.49
2024-01-15T02:22:44.746Z,84.40
2024-01-15T02:25:50.273Z,85.09
2024-01-15T02:28:54.796Z,84.09
2024-01-15T02:31:59.886Z,82.61
2024-01-15T02:35:03.706Z,83.00
2024-01-15T02:38:08.550Z,83.68
2024-01-15T02:41:17.219Z,82.89
2024-01-15T02:44:21.026Z,83.45
2024-01-15T02:47:27.836Z,84.08
2024-01-15T02:50:31.641Z,83.78
2024-01-15T02:53:35.390Z,84.52
2024-01-15T02:56:40.809Z,84.91
2024-01-15T02:59:44.429Z,85.59
2024-01-15T03:02:49.189Z,85.22
2024-01-15T03:05:55.611Z,84.12
2024-01-15T03:08:59.473Z,84.86
2024-01-15T03:12:05.948Z,84.60
2024-01-15T03:15:10.123Z,85.99
2024-01-15T03:18:13.860Z,85.24
2024-01-15T03:21:17.648Z,85.12
2024-01-15T03:24:21.747Z,84.65
2024-01-15T03:27:29.649Z,84.81
2024-01-15T03:30:33.155Z,85.17
2024-01-15T03:33:37.261Z,85.07
2024-01-15T03:36:43.560Z,84.11
2024-01-15T03:39:55.788Z,84.17
2024-01-15T03:43:00.956Z,83.59
2024-01-15T03:46:06.341Z,83.80
2024-01-15T03:49:10.136Z,83.65
2024-01-15T03:52:14.465Z,85.13
2024-01-15T03:55:18.384Z,84.73
2024-01-15T03:58:26.621Z,85.62
2024-01-15T04:01:33.113Z,84.90
2024-01-15T04:04:37.192Z,84.68
2024-01-15T04:07:40.997Z,85.35
2024-01-15T04:10:44.698Z,84.70
2024-01-15T04:13:49.822Z,85.09
2024-01-15T04:16:53.576Z,85.97
2024-01-15T04:19:57.499Z,85.75
2024-01-15T04:23:01.266Z,86.37
2024-01-15T04:26:05.080Z,86.26
2024-01-15T04:29:10.277Z,85.20
2024-01-15T04:32:13.998Z,87.30
2024-01-15T04:35:17.988Z,86.15
2024-01-15T04:38:21.664Z,85.94
2024-01-15T04:41:25.465Z,86.16
2024-01-15T04:44:30.763Z,87.14
2024-01-15T04:47:34.489Z,85.67
2024-01-15T04:50:38.185Z,85.61
2024-01-15T04:53:41.871Z,84.74
2024-01-15T04:56:45.732Z,85.59
2024-01-15T04:59:50.883Z,84.54
2024-01-15T05:02:54.661Z,85.25
2024-01-15T05:05:58.396Z,85.01
2024-01-15T05:09:02.151Z,85.31
2024-01-15T05:12:06.675Z,84.81
2024-01-15T05:15:12.564Z,86.94
2024-01-15T05:18:16.540Z,87.70
2024-01-15T05:21:20.346Z,87.01
2024-01-15T05:24:24.152Z,86.23
2024-01-15T05:27:27.946Z,87.12
2024-01-15T05:30:33.254Z,87.93
2024-01-15T05:33:37.048Z,88.04
2024-01-15T05:36:41.384Z,86.82
2024-01-15T05:39:45.221Z,88.17
2024-01-15T05:42:49.093Z,88.15
2024-01-15T05:45:54.282Z,86.78
2024-01-15T05:48:58.267Z,87.16
2024-01-15T05:52:02.070Z,88.06
2024-01-15T05:55:06.258Z,87.81
2024-01-15T05:58:10.087Z,88.54
2024-01-15T06:01:15.327Z,88.75
2024-01-15T06:04:19.297Z,88.94
2024-01-15T06:07:23.988Z,88.70
2024-01-15T06:10:27.631Z,89.36
2024-01-15T06:13:31.306Z,88.81
2024-01-15T06:16:36.332Z,88.44
2024-01-15T06:19:40.220Z,87.60
2024-01-15T06:22:44.099Z,88.81
2024-01-15T06:25:47.860Z,88.37
2024-01-15T06:28:51.620Z,88.46
2024-01-15T06:31:56.824Z,88.25
2024-01-15T06:35:00.561Z,87.65
2024-01-15T06:38:04.437Z,88.52
2024-01-15T06:41:08.198Z,89.28
2024-01-15T06:44:12.202Z,87.88
2024-01-15T06:47:18.602Z,89.21
2024-01-15T06:50:22.507Z,88.32
2024-01-15T06:53:26.236Z,86.35
2024-01-15T06:56:30.018Z,87.36
2024-01-15T06:59:33.655Z,87.95
2024-01-15T07:02:38.893Z,88.26
2024-01-15T07:05:42.677Z,87.75
2024-01-15T07:08:46.368Z,89.97
2024-01-15T07:11:50.140Z,87.85
2024-01-15T07:14:53.912Z,87.27
2024-01-15T07:17:59.025Z,87.75
2024-01-15T07:21:03.992Z,86.50
2024-01-15T07:24:07.732Z,85.71
2024-01-15T07:27:11.567Z,87.36
2024-01-15T07:30:16.639Z,87.37
2024-01-15T07:33:22.073Z,84.58
2024-01-15T07:36:25.848Z,83.96
2024-01-15T07:39:30.205Z,83.70
2024-01-15T07:42:33.945Z,85.52
2024-01-15T07:45:38.020Z,86.43
2024-01-15T07:48:43.370Z,83.76
2024-01-15T07:51:47.222Z,85.12
2024-01-15T07:54:51.006Z,84.76
2024-01-15T07:58:06.777Z,84.80
2024-01-15T08:01:19.066Z,86.03
2024-01-15T08:04:24.691Z,84.67
2024-01-15T08:07:28.876Z,84.78
2024-01-15T08:10:32.512Z,85.65
2024-01-15T08:13:36.161Z,86.04
2024-01-15T08:16:40.259Z,86.31
2024-01-15T08:19:45.679Z,85.88
2024-01-15T08:22:49.580Z,84.71
2024-01-15T08:25:53.551Z,84.90
2024-01-15T08:28:57.461Z,86.75
2024-01-15T08:32:01.351Z,86.21
2024-01-15T08:35:07.478Z,84.04
2024-01-15T08:38:11.342Z,85.14
2024-01-15T08:41:15.795Z,82.28
2024-01-15T08:44:19.564Z,82.93
2024-01-15T08:47:23.600Z,83.98
2024-01-15T08:50:28.782Z,84.23
2024-01-15T08:53:32.455Z,84.97
2024-01-15T08:56:36.155Z,85.67
2024-01-15T08:59:39.961Z,84.80
2024-01-15T09:02:44.243Z,84.97
2024-01-15T09:05:51.343Z,84.60
2024-01-15T09:08:55.062Z,84.35
2024-01-15T09:11:58.820Z,83.38
2024-01-15T09:15:05.510Z,84.75
2024-01-15T09:18:09.576Z,85.17
2024-01-15T09:21:14.836Z,84.03
2024-01-15T09:24:18.524Z,84.60
2024-01-15T09:27:31.116Z,85.26
2024-01-15T09:30:34.831Z,85.05
2024-01-15T09:33:38.635Z,85.10
2024-01-15T09:36:44.636Z,84.81
2024-01-15T09:39:49.564Z,85.95
2024-01-15T09:42:54.739Z,84.62
2024-01-15T09:45:59.843Z,83.44
2024-01-15T09:49:04.044Z,83.98
2024-01-15T09:52:12.222Z,83.01
2024-01-15T09:55:17.645Z,83.14
2024-01-15T09:58:23.015Z,82.44
2024-01-15T10:01:27.844Z,83.49
2024-01-15T10:04:31.915Z,84.68
2024-01-15T10:07:38.472Z,82.58
2024-01-15T10:10:42.187Z,81.83
2024-01-15T10:13:47.716Z,82.02
2024-01-15T10:16:52.360Z,82.22
2024-01-15T10:19:56.112Z,82.46
2024-01-15T10:23:01.586Z,83.14
2024-01-15T10:26:05.996Z,82.39
2024-01-15T10:29:09.639Z,83.75
2024-01-15T10:32:14.163Z,82.66
2024-01-15T10:35:17.792Z,82.59
2024-01-15T10:38:23.415Z,83.80
2024-01-15T10:41:27.133Z,83.52
2024-01-15T10:44:31.337Z,83.65
2024-01-15T10:47:35.198Z,82.24
2024-01-15T10:50:38.934Z,82.93
2024-01-15T10:53:45.143Z,83.89
2024-01-15T10:56:49.635Z,81.58
2024-01-15T10:59:53.298Z,82.49
2024-01-15T11:02:57.265Z,82.15
2024-01-15T11:06:02.541Z,82.58
2024-01-15T11:09:09.121Z,84.70
2024-01-15T11:12:14.489Z,83.79
2024-01-15T11:15:22.989Z,83.17
2024-01-15T11:18:28.962Z,82.72
2024-01-15T11:21:32.786Z,83.68
2024-01-15T11:24:40.498Z,85.14
2024-01-15T11:27:45.297Z,86.16
2024-01-15T11:30:50.477Z,83.56
2024-01-15T11:33:54.380Z,84.80
2024-01-15T11:37:05.169Z,84.82
2024-01-15T11:40:13.299Z,83.95
2024-01-15T11:43:21.785Z,82.98
2024-01-15T11:46:33.490Z,82.64
2024-01-15T11:50:02.756Z,83.67
2024-01-15T11:53:19.265Z,82.58
2024-01-15T11:56:25.817Z,82.73
2024-01-15T11:59:29.570Z,83.55
2024-01-15T12:02:33.287Z,83.82
2024-01-15T12:05:40.027Z,83.72
2024-01-15T12:08:43.905Z,84.24
2024-01-15T12:11:57.091Z,83.75
2024-01-15T12:15:01.110Z,84.99
2024-01-15T12:18:05.764Z,85.17
2024-01-15T12:21:09.815Z,83.90
2024-01-15T12:24:13.588Z,85.47
2024-01-15T12:27:19.216Z,84.33
2024-01-15T12:30:23.109Z,83.35
2024-01-15T12:33:26.914Z,83.45
2024-01-15T12:36:33.456Z,84.69
2024-01-15T12:39:37.419Z,85.80
2024-01-15T12:42:44.178Z,85.06
2024-01-15T12:45:48.395Z,84.63
2024-01-15T12:48:52.259Z,85.48
2024-01-15T12:51:56.261Z,85.22
2024-01-15T12:54:59.952Z,85.86
2024-01-15T12:58:05.208Z,86.86
2024-01-15T13:01:09.078Z,87.52
2024-01-15T13:04:13.027Z,88.27
2024-01-15T13:07:16.768Z,87.53
2024-01-15T13:10:20.511Z,87.28
2024-01-15T13:13:25.627Z,87.51
2024-01-15T13:16:30.368Z,87.49
2024-01-15T13:19:34.298Z,89.75
2024-01-15T13:22:40.488Z,87.53
2024-01-15T13:25:44.175Z,85.63
2024-01-15T13:28:50.051Z,87.96
2024-01-15T13:31:53.767Z,89.27
2024-01-15T13:34:57.992Z,88.63
2024-01-15T13:38:01.778Z,88.39
2024-01-15T13:41:05.645Z,87.54
2024-01-15T13:44:11.841Z,90.89
2024-01-15T13:47:15.643Z,90.43
2024-01-15T13:50:19.671Z,90.46
2024-01-15T13:53:23.277Z,87.88
2024-01-15T13:56:31.893Z,88.18
2024-01-15T13:59:37.052Z,88.11
2024-01-15T14:02:40.749Z,88.91
2024-01-15T14:05:45.716Z,90.47
2024-01-15T14:08:49.375Z,89.71
2024-01-15T14:11:53.140Z,88.57
2024-01-15T14:14:58.248Z,88.75
2024-01-15T14:18:02.398Z,89.79
2024-01-15T14:21:06.736Z,90.79
2024-01-15T14:24:10.404Z,90.38
2024-01-15T14:27:14.030Z,90.31
2024-01-15T14:30:19.546Z,90.52
2024-01-15T14:33:23.540Z,89.13
2024-01-15T14:36:27.455Z,90.42
2024-01-15T14:39:33.224Z,91.73
2024-01-15T14:42:37.937Z,90.71
2024-01-15T14:45:44.299Z,91.18
2024-01-15T14:48:48.538Z,91.93
2024-01-15T14:51:52.805Z,93.12
2024-01-15T14:54:56.626Z,90.96
2024-01-15T14:58:00.488Z,92.38
2024-01-15T15:01:06.462Z,92.97
2024-01-15T15:04:11.740Z,93.21
2024-01-15T15:07:15.569Z,93.02
2024-01-15T15:10:19.708Z,90.78
2024-01-15T15:13:33.984Z,90.24
2024-01-15T15:16:47.962Z,92.08
2024-01-15T15:19:54.766Z,93.10
2024-01-15T15:22:58.720Z,93.50
2024-01-15T15:26:02.430Z,91.86
2024-01-15T15:29:06.212Z,91.47
2024-01-15T15:32:14.054Z,91.78
2024-01-15T15:35:17.870Z,92.54
2024-01-15T15:38:22.254Z,94.17
2024-01-15T15:41:27.125Z,93.86
2024-01-15T15:44:30.938Z,93.19
2024-01-15T15:47:36.192Z,91.75
2024-01-15T15:50:40.233Z,93.83
2024-01-15T15:53:44.036Z,93.70
2024-01-15T15:56:50.942Z,94.49
2024-01-15T15:59:58.569Z,93.67
2024-01-15T16:03:03.806Z,93.89
2024-01-15T16:06:07.900Z,96.09
2024-01-15T16:09:12.517Z,94.50
2024-01-15T16:12:16.455Z,95.26
2024-01-15T16:15:22.435Z,93.90
2024-01-15T16:23:20.940Z,93.58
2024-01-15T16:23:38.680Z,95.48
2024-01-15T16:25:21.726Z,94.69
2024-01-15T16:28:26.772Z,93.49
2024-01-15T16:31:32.940Z,91.79
2024-01-15T16:34:38.232Z,93.27
2024-01-15T16:37:44.683Z,91.73
2024-01-15T16:40:48.921Z,93.26
2024-01-15T16:43:52.636Z,92.18
2024-01-15T16:47:06.715Z,92.01
2024-01-15T16:50:13.642Z,93.70
2024-01-15T16:53:17.426Z,94.33
2024-01-15T16:56:21.432Z,92.69
2024-01-15T16:59:27.741Z,92.20
2024-01-15T17:02:31.733Z,92.26
2024-01-15T17:05:37.550Z,92.26
2024-01-15T17:08:41.622Z,91.95
2024-01-15T17:11:46.990Z,93.07
2024-01-15T17:14:51.150Z,93.18
2024-01-15T17:17:55.500Z,93.57
2024-01-15T17:21:01.280Z,92.77
2024-01-15T17:24:06.742Z,94.15
2024-01-15T17:27:10.488Z,93.30
2024-01-15T17:30:14.587Z,93.10
2024-01-15T17:33:18.472Z,93.51
2024-01-15T17:36:24.073Z,94.75
2024-01-15T17:39:28.237Z,94.14
2024-01-15T17:42:34.501Z,93.11
2024-01-15T17:45:39.531Z,94.56
2024-01-15T17:48:43.776Z,92.57
2024-01-15T17:51:51.815Z,94.33
2024-01-15T17:54:55.520Z,93.06
2024-01-15T17:58:00.167Z,92.67
2024-01-15T18:01:04.101Z,93.49
2024-01-15T18:04:08.750Z,93.08
2024-01-15T18:07:16.701Z,93.03
2024-01-15T18:10:21.091Z,92.47
2024-01-15T18:13:24.932Z,91.86
2024-01-15T18:16:28.757Z,94.05
2024-01-15T18:19:32.732Z,93.98
2024-01-15T18:22:38.285Z,94.71
2024-01-15T18:25:44.674Z,96.72
2024-01-15T18:28:49.786Z,94.63
2024-01-15T18:31:53.857Z,94.55
2024-01-15T18:34:57.997Z,93.95
2024-01-15T18:38:03.403Z,95.95
2024-01-15T18:41:07.428Z,95.07
2024-01-15T18:44:11.651Z,95.27
2024-01-15T18:47:16.283Z,93.74
2024-01-15T18:50:20.381Z,95.50
2024-01-15T18:53:31.485Z,94.72
2024-01-15T18:56:37.330Z,95.26
2024-01-15T18:59:42.168Z,95.25
2024-01-15T19:02:51.040Z,95.63
2024-01-15T19:05:55.673Z,95.59
2024-01-15T19:09:00.807Z,95.14
2024-01-15T19:12:05.524Z,94.85
2024-01-15T19:15:10.395Z,94.52
2024-01-15T19:18:15.349Z,94.60
2024-01-15T19:21:22.899Z,96.00
2024-01-15T19:24:30.715Z,97.22
2024-01-15T19:27:34.904Z,97.05
2024-01-15T19:30:45.774Z,96.01
2024-01-15T19:33:55.199Z,96.68
2024-01-15T19:36:58.964Z,96.61
2024-01-15T19:40:04.279Z,95.60
2024-01-15T19:43:08.940Z,93.38
2024-01-15T19:46:12.965Z,93.81
2024-01-15T19:49:18.746Z,95.59
2024-01-15T19:52:22.446Z,94.20
2024-01-15T19:55:33.050Z,93.06
2024-01-15T19:58:40.292Z,93.58
2024-01-15T20:01:47.970Z,95.55
2024-01-15T20:04:51.684Z,95.73
2024-01-15T20:07:55.534Z,95.03
2024-01-15T20:11:01.169Z,95.10
2024-01-15T20:14:08.313Z,94.37
2024-01-15T20:17:12.783Z,94.29
2024-01-15T20:20:18.004Z,94.76
2024-01-15T20:23:21.995Z,93.03
2024-01-15T20:26:27.145Z,93.88
2024-01-15T20:29:32.023Z,94.78
2024-01-15T20:32:35.818Z,95.70
2024-01-15T20:35:39.601Z,97.05
2024-01-15T20:38:45.775Z,95.79
2024-01-15T20:41:51.656Z,94.46
2024-01-15T20:44:55.660Z,96.60
2024-01-15T20:48:01.518Z,96.65
2024-01-15T20:51:06.341Z,96.38
2024-01-15T20:54:10.260Z,96.22
2024-01-15T20:57:15.389Z,98.00
2024-01-15T21:00:19.997Z,97.77
2024-01-15T21:03:23.735Z,98.20
2024-01-15T21:06:28.328Z,98.63
2024-01-15T21:09:32.427Z,99.43
2024-01-15T21:12:38.972Z,98.23
2024-01-15T21:15:45.619Z,96.75
2024-01-15T21:18:52.954Z,97.60
2024-01-15T21:21:56.619Z,97.66
2024-01-15T21:25:00.597Z,98.67
2024-01-15T21:28:08.537Z,98.59
2024-01-15T21:31:12.469Z,99.78
2024-01-15T21:34:17.152Z,100.00
2024-01-15T21:37:20.836Z,99.79
2024-01-15T21:40:27.476Z,97.83
2024-01-15T21:43:35.320Z,98.91
2024-01-15T21:46:39.178Z,98.47
2024-01-15T21:49:44.136Z,97.50
2024-01-15T21:52:47.822Z,97.30
2024-01-15T21:55:52.898Z,99.50
2024-01-15T21:58:58.926Z,100.00
2024-01-15T22:02:09.659Z,100.00
2024-01-15T22:05:19.479Z,100.00
2024-01-15T22:08:24.880Z,100.00
2024-01-15T22:11:30.232Z,99.76
2024-01-15T22:14:38.334Z,100.00
2024-01-15T22:17:44.294Z,100.00
2024-01-15T22:20:48.141Z,98.24
2024-01-15T22:23:51.843Z,100.00
2024-01-15T22:26:55.691Z,100.00
2024-01-15T22:30:00.835Z,100.00
2024-01-15T22:33:04.711Z,100.00
2024-01-15T22:36:08.998Z,100.00
2024-01-15T22:39:12.672Z,100.00
2024-01-15T22:42:16.328Z,99.39
2024-01-15T22:45:21.609Z,99.67
2024-01-15T22:48:25.818Z,99.44
2024-01-15T22:51:29.626Z,100.00
2024-01-15T22:54:33.293Z,97.67
2024-01-15T22:57:37.536Z,98.54
2024-01-15T23:00:45.047Z,99.86
2024-01-15T23:03:49.384Z,99.82
2024-01-15T23:06:53.062Z,97.18
2024-01-15T23:09:56.653Z,99.73
2024-01-15T23:13:00.537Z,97.45
2024-01-15T23:16:05.731Z,99.19
2024-01-15T23:19:09.477Z,97.69
2024-01-15T23:22:13.538Z,99.28
2024-01-15T23:25:17.221Z,98.67
2024-01-15T23:28:22.508Z,98.44
2024-01-15T23:31:27.662Z,97.61
2024-01-15T23:34:31.347Z,98.01
2024-01-15T23:37:35.075Z,96.51
2024-01-15T23:40:38.694Z,96.46
2024-01-15T23:43:42.291Z,94.33
2024-01-15T23:46:47.348Z,97.17
2024-01-15T23:49:50.968Z,97.68
2024-01-15T23:52:54.633Z,97.57
2024-01-15T23:55:58.254Z,97.69
2024-01-15T23:59:02.023Z,97.47
